createdAt,value
2022-08-19T03:23:09.616Z,99587.14
2022-08-19T03:28:58.240Z,99576.85
2022-08-19T03:31:52.185Z,99570.63
2022-08-19T03:34:53.757Z,99574.14
2022-08-19T03:37:23.406Z,99573.43
2022-08-19T03:39:50.536Z,99575.78
2022-08-19T03:42:49.571Z,99582.36
2022-08-19T03:45:19.294Z,99583.54
2022-08-19T03:58:49.345Z,99592.93
2022-08-19T04:01:41.106Z,99587.91
2022-08-19T04:11:48.363Z,99607.34
2022-08-19T04:14:06.719Z,99600.93
2022-08-19T04:20:07.077Z,99593.96
2022-08-19T04:22:47.910Z,99596.31
2022-08-19T04:26:39.280Z,99600.60
2022-08-19T04:28:45.371Z,99601.70
2022-08-19T04:35:28.074Z,99601.91
2022-08-19T04:38:12.807Z,99612.25
2022-08-19T04:41:17.696Z,99620.17
2022-08-19T04:44:12.127Z,99629.23
2022-08-19T04:46:51.247Z,99637.77
2022-08-19T04:50:08.889Z,99638.44
2022-08-19T04:52:46.872Z,99635.73
2022-08-19T04:55:15.269Z,99640.44
2022-08-19T04:57:53.395Z,99642.75
2022-08-19T05:00:29.650Z,99639.48
2022-08-19T05:03:36.813Z,99640.99
2022-08-19T05:06:38.404Z,99638.92
2022-08-19T05:10:08.543Z,99633.80
2022-08-19T05:12:37.733Z,99620.05
2022-08-19T05:18:25.611Z,99621.86
2022-08-19T05:21:48.600Z,99621.84
2022-08-19T05:41:31.645Z,99630.77
2022-08-19T05:50:50.630Z,99634.23
2022-08-19T05:57:19.065Z,99631.96
2022-08-19T05:59:53.242Z,99632.16
2022-08-19T06:02:38.957Z,99635.89
2022-08-19T06:05:59.481Z,99641.23
2022-08-19T06:08:47.149Z,99642.59
2022-08-19T06:11:55.986Z,99645.13
2022-08-19T06:14:27.840Z,99648.11
2022-08-19T06:20:22.729Z,99659.13
2022-08-19T06:39:23.281Z,99662.10
2022-08-19T06:41:55.454Z,99665.27
2022-08-19T06:51:25.301Z,99664.96
2022-08-19T06:59:42.908Z,99666.75
2022-08-19T07:21:48.830Z,99676.35
2022-08-19T07:24:22.279Z,99675.02
2022-08-19T07:26:51.815Z,99671.92
2022-08-19T07:29:28.618Z,99663.94
2022-08-19T07:35:24.333Z,99663.40
2022-08-19T08:47:53.078Z,99633.46
2022-08-19T08:50:39.804Z,99631.86
2022-08-19T08:54:03.376Z,99628.63
2022-08-19T08:56:43.499Z,99621.69
2022-08-19T08:59:21.759Z,99617.88
2022-08-19T09:02:03.664Z,99616.85
2022-08-19T09:04:43.881Z,99618.10
2022-08-19T09:08:15.501Z,99615.20
2022-08-19T09:11:16.461Z,99615.23
2022-08-19T09:14:55.157Z,99614.05
2022-08-19T09:17:42.891Z,99608.27
2022-08-19T09:20:18.483Z,99610.24
2022-08-19T09:22:45.695Z,99606.52
2022-08-19T09:25:18.276Z,99605.10
2022-08-19T09:27:54.143Z,99602.49
2022-08-19T09:30:25.006Z,99604.17
2022-08-19T09:32:57.101Z,99603.23
2022-08-19T09:35:53.728Z,99604.16
2022-08-19T09:38:52.442Z,99605.15
2022-08-19T09:41:23.388Z,99604.63
2022-08-19T09:43:56.285Z,99605.92
2022-08-19T09:46:24.770Z,99604.89
2022-08-19T09:48:53.148Z,99606.59
2022-08-19T09:51:23.883Z,99605.69
2022-08-19T09:53:52.875Z,99607.52
2022-08-19T09:56:26.347Z,99607.70
2022-08-19T09:58:55.501Z,99604.02
2022-08-19T10:01:39.363Z,99601.26
2022-08-19T10:04:20.102Z,99598.59
2022-08-19T10:06:53.418Z,99594.55
2022-08-19T10:09:26.454Z,99595.80
2022-08-19T10:12:06.082Z,99590.59
2022-08-19T10:14:40.347Z,99585.60
2022-08-19T10:17:17.440Z,99581.63
2022-08-19T10:19:55.532Z,99581.09
2022-08-19T10:22:23.466Z,99580.45
2022-08-19T10:24:53.150Z,99580.07
2022-08-19T10:27:20.079Z,99580.08
2022-08-19T10:29:51.147Z,99579.36
2022-08-19T10:32:18.256Z,99576.77
2022-08-19T10:34:49.909Z,99580.52
2022-08-19T10:37:31.341Z,99578.45
2022-08-19T10:39:59.197Z,99578.97
2022-08-19T10:42:25.975Z,99575.59
2022-08-19T10:44:59.964Z,99569.83
2022-08-19T10:47:31.572Z,99571.22
2022-08-19T10:50:28.531Z,99565.73
2022-08-19T10:53:11.777Z,99568.88
2022-08-19T10:55:59.822Z,99561.88
2022-08-19T10:58:26.967Z,99565.02
2022-08-19T11:00:55.182Z,99563.05
2022-08-19T11:03:29.676Z,99556.44
2022-08-19T11:06:11.898Z,99553.50
2022-08-19T11:08:45.399Z,99548.67
2022-08-19T11:11:15.619Z,99547.74
2022-08-19T11:13:49.101Z,99538.41
2022-08-19T11:16:39.235Z,99529.38
2022-08-19T11:19:29.598Z,99526.14
2022-08-19T11:22:06.484Z,99526.75
2022-08-19T11:25:11.360Z,99520.93
2022-08-19T11:28:11.477Z,99522.70
2022-08-19T11:30:39.027Z,99518.05
2022-08-19T11:33:08.300Z,99518.77
2022-08-19T11:35:38.942Z,99512.73
2022-08-19T11:38:09.734Z,99508.66
2022-08-19T11:40:54.838Z,99507.96
2022-08-19T11:43:23.004Z,99508.66
2022-08-19T11:45:54.648Z,99504.46
2022-08-19T11:48:22.439Z,99505.47
2022-08-19T11:50:50.198Z,99501.98
2022-08-19T11:53:20.682Z,99497.65
2022-08-19T11:55:48.085Z,99496.31
2022-08-19T11:58:18.953Z,99497.00
2022-08-19T12:00:46.172Z,99494.21
2022-08-19T12:03:14.053Z,99490.17
2022-08-19T12:05:41.416Z,99488.77
2022-08-19T12:08:08.677Z,99482.70
2022-08-19T12:10:36.287Z,99479.52
2022-08-19T12:13:04.192Z,99483.62
2022-08-19T12:15:38.709Z,99479.29
2022-08-19T12:18:05.429Z,99480.50
2022-08-19T12:20:34.502Z,99478.94
2022-08-19T12:23:03.734Z,99480.38
2022-08-19T12:25:31.438Z,99478.96
2022-08-19T12:27:58.724Z,99479.94
2022-08-19T12:30:25.998Z,99479.64
2022-08-19T12:32:55.955Z,99478.40
2022-08-19T12:35:24.630Z,99477.66
2022-08-19T12:37:56.691Z,99478.84
2022-08-19T12:40:26.283Z,99478.39
2022-08-19T12:43:05.142Z,99477.86
2022-08-19T12:45:37.905Z,99473.60
2022-08-19T12:48:33.843Z,99472.03
2022-08-19T12:50:54.734Z,99473.30
2022-08-19T12:53:21.690Z,99466.78
2022-08-19T12:55:50.878Z,99462.66
2022-08-19T12:58:24.219Z,99458.11
2022-08-19T13:01:01.307Z,99454.70
2022-08-19T13:03:30.154Z,99454.14
2022-08-19T13:05:57.216Z,99447.54
2022-08-19T13:08:24.203Z,99439.34
2022-08-19T13:11:11.934Z,99433.30
2022-08-19T13:13:42.802Z,99428.39
2022-08-19T13:16:13.960Z,99429.53
2022-08-19T13:18:42.409Z,99427.98
2022-08-19T13:21:16.016Z,99425.54
2022-08-19T13:23:43.073Z,99424.16
2022-08-19T13:26:15.558Z,99418.69
2022-08-19T13:29:10.864Z,99419.88
2022-08-19T13:31:59.516Z,99421.73
2022-08-19T13:34:35.456Z,99423.98
2022-08-19T13:37:08.311Z,99415.77
2022-08-19T13:39:41.350Z,99415.59
2022-08-19T13:42:11.591Z,99415.17
2022-08-19T13:44:40.530Z,99419.15
2022-08-19T13:47:08.750Z,99415.95
2022-08-19T13:49:36.713Z,99417.70
2022-08-19T13:52:05.110Z,99420.40
2022-08-19T13:54:31.990Z,99416.98
2022-08-19T13:57:04.293Z,99413.39
2022-08-19T13:59:36.738Z,99419.06
2022-08-19T14:02:17.030Z,99420.25
2022-08-19T14:04:46.487Z,99419.20
2022-08-19T14:07:14.553Z,99420.25
2022-08-19T14:09:43.382Z,99418.02
2022-08-19T14:12:14.598Z,99420.45
2022-08-19T14:14:41.414Z,99415.41
2022-08-19T14:17:09.654Z,99414.45
2022-08-19T14:19:39.011Z,99415.77
2022-08-19T14:22:10.884Z,99412.05
2022-08-19T14:24:50.047Z,99414.45
2022-08-19T14:27:24.514Z,99413.84
2022-08-19T14:29:53.054Z,99414.63
2022-08-19T14:32:22.099Z,99413.02
2022-08-19T14:34:54.050Z,99414.65
2022-08-19T14:37:22.539Z,99417.06
2022-08-19T14:39:54.579Z,99412.45
2022-08-19T14:42:23.669Z,99412.40
2022-08-19T14:44:50.369Z,99412.05
2022-08-19T14:47:17.514Z,99417.09
2022-08-19T14:49:48.289Z,99414.91
2022-08-19T14:52:20.820Z,99414.71
2022-08-19T14:55:01.049Z,99414.12
2022-08-19T14:57:34.176Z,99413.05
2022-08-19T15:00:01.120Z,99411.66
2022-08-19T15:02:34.989Z,99409.44
2022-08-19T15:05:05.083Z,99407.38
2022-08-19T15:07:40.036Z,99408.33
2022-08-19T15:10:12.458Z,99410.31
2022-08-19T15:12:40.670Z,99410.59
2022-08-19T15:15:08.999Z,99408.67
2022-08-19T15:17:53.819Z,99410.39
2022-08-19T15:20:23.261Z,99409.38
2022-08-19T15:22:52.229Z,99412.55
2022-08-19T15:25:20.881Z,99408.94
2022-08-19T15:27:53.882Z,99405.70
2022-08-19T15:30:45.246Z,99397.42
2022-08-19T15:37:18.124Z,99390.42
2022-08-19T15:40:09.271Z,99386.52
2022-08-19T15:50:36.283Z,99394.55
2022-08-19T15:53:43.380Z,99393.82
2022-08-19T15:59:47.161Z,99390.62
2022-08-19T16:02:47.502Z,99386.42
2022-08-19T16:05:43.627Z,99383.97
2022-08-19T16:08:14.980Z,99386.23
2022-08-19T16:10:44.586Z,99385.80
2022-08-19T16:13:14.064Z,99383.36
2022-08-19T16:15:44.045Z,99385.71
2022-08-19T16:18:25.940Z,99386.73
2022-08-19T16:20:52.905Z,99384.23
2022-08-19T16:23:28.676Z,99387.34
2022-08-19T16:25:56.278Z,99389.13
2022-08-19T16:28:26.132Z,99382.05
2022-08-19T16:30:56.032Z,99381.59
2022-08-19T16:33:25.467Z,99378.27
2022-08-19T16:36:06.902Z,99379.13
2022-08-19T16:38:41.536Z,99379.75
2022-08-19T16:41:37.088Z,99381.86
2022-08-19T16:44:14.749Z,99386.35
2022-08-19T16:46:41.606Z,99393.27
2022-08-19T16:49:53.073Z,99397.13
2022-08-19T16:52:29.355Z,99405.73
2022-08-19T16:55:05.039Z,99404.52
2022-08-19T16:58:28.113Z,99405.26
2022-08-19T17:01:14.784Z,99401.45
2022-08-19T17:03:53.271Z,99396.16
2022-08-19T17:06:57.176Z,99398.89
2022-08-19T17:09:52.108Z,99405.42
2022-08-19T17:12:30.404Z,99405.76
2022-08-19T17:15:17.792Z,99410.58
2022-08-19T17:17:49.828Z,99406.68
2022-08-19T17:20:39.441Z,99399.88
2022-08-19T17:23:14.527Z,99397.39
2022-08-19T17:28:55.844Z,99395.16
2022-08-19T17:29:24.038Z,99397.07
2022-08-19T17:32:15.718Z,99397.57
2022-08-19T17:37:08.402Z,99399.06
2022-08-19T17:38:27.029Z,99399.89
2022-08-19T17:41:43.786Z,99399.05
2022-08-19T17:44:37.557Z,99402.11
2022-08-19T17:47:32.254Z,99407.73
2022-08-19T17:50:04.985Z,99419.13
2022-08-19T17:52:55.012Z,99419.44
2022-08-19T17:56:17.399Z,99422.84
2022-08-19T17:59:22.852Z,99426.94
2022-08-19T18:01:59.528Z,99432.66
2022-08-19T18:05:21.274Z,99434.17
2022-08-19T18:07:51.889Z,99431.41
2022-08-19T18:13:36.983Z,99435.91
2022-08-19T18:18:04.270Z,99433.40
2022-08-19T18:23:44.626Z,99432.60
2022-08-19T18:29:30.381Z,99431.13
2022-08-19T18:32:16.617Z,99426.86
2022-08-19T18:35:02.447Z,99427.20
2022-08-19T18:37:29.466Z,99428.56
2022-08-19T18:40:14.831Z,99426.65
2022-08-19T18:43:03.158Z,99433.58
2022-08-19T18:45:49.571Z,99437.97
2022-08-19T18:48:35.055Z,99438.98
2022-08-19T18:51:04.397Z,99439.40
2022-08-19T18:53:35.581Z,99442.23
2022-08-19T18:56:08.361Z,99439.08
2022-08-19T18:58:36.270Z,99439.41
2022-08-19T19:01:13.684Z,99438.03
2022-08-19T19:03:57.500Z,99434.32
2022-08-19T19:06:32.054Z,99433.89
2022-08-19T19:09:19.200Z,99430.06
2022-08-19T19:11:50.769Z,99429.38
2022-08-19T19:14:47.742Z,99426.20
2022-08-19T19:17:24.867Z,99424.46
2022-08-19T19:20:00.356Z,99423.27
2022-08-19T19:22:27.096Z,99427.97
2022-08-19T19:24:56.085Z,99423.97
2022-08-19T19:27:24.199Z,99424.13
2022-08-19T19:29:52.655Z,99422.25
2022-08-19T19:32:24.389Z,99420.64
2022-08-19T19:34:52.055Z,99421.54
2022-08-19T19:37:19.346Z,99426.70
2022-08-19T19:39:49.016Z,99425.00
2022-08-19T19:42:22.311Z,99425.20
2022-08-19T19:44:55.665Z,99422.98
2022-08-19T19:47:23.797Z,99424.02
2022-08-19T19:50:14.824Z,99429.41
2022-08-19T19:52:48.577Z,99433.98
2022-08-19T19:55:18.940Z,99432.95
2022-08-19T19:57:48.311Z,99437.69
2022-08-19T20:00:18.050Z,99437.80
2022-08-19T20:03:07.676Z,99436.61
2022-08-19T20:09:58.731Z,99440.58
2022-08-19T20:20:10.356Z,99450.41
2022-08-19T20:25:11.148Z,99438.77
2022-08-19T20:27:45.638Z,99439.69
2022-08-19T20:30:53.424Z,99439.21
2022-08-19T20:37:32.585Z,99436.08
2022-08-19T20:40:21.926Z,99441.04
2022-08-19T20:43:16.093Z,99449.11
2022-08-19T20:45:58.309Z,99457.89
2022-08-19T20:49:27.487Z,99458.02
2022-08-19T20:55:27.046Z,99455.84
2022-08-19T21:01:06.065Z,99457.51
2022-08-19T21:17:07.110Z,99453.50
